ADDS METAR Data INFO
IDs: Format: Raw Decoded Include TAF

Data at: 1445 UTC 22 Feb 2018

KBTR 221353Z 10003KT 3SM BR FEW013 BKN030 OVC033 23/21 A3028 RMK AO2 SLP254 T02280211
KBTR 221328Z 11003KT 2 1/2SM BR FEW013 BKN030 OVC033 22/21 A3027 RMK AO2 T02220211
KBTR 221253Z 11003KT 2 1/2SM BR SCT014 BKN029 22/21 A3026 RMK AO2 SLP247 T02170206
KBTR 221251Z 11004KT 2 1/2SM BR SCT014 BKN029 22/21 A3026 RMK AO2
KBTR 221153Z 09004KT 3SM BR SCT014 BKN029 22/21 A3025 RMK AO2 SLP242 T02170206 10233 20217 53010
KBTR 221053Z 10005KT 4SM BR SCT016 BKN021 BKN029 22/20 A3023 RMK AO2 SLP236 T02170200
KBTR 221035Z AUTO 11003KT 5SM BR FEW014 BKN028 OVC033 22/21 A3023 RMK AO2 T02170206
KBTR 221024Z AUTO 13004KT 5SM BR BKN014 BKN019 OVC028 22/21 A3022 RMK AO2 T02220206
KBTR 220953Z AUTO 09003KT 5SM BR OVC016 22/21 A3023 RMK AO2 SLP234 T02220206
KBTR 220853Z AUTO 15006KT 5SM BR OVC028 23/21 A3022 RMK AO2 SLP232 T02280206 58001
KBTR 220753Z AUTO 15006KT 5SM BR OVC028 23/21 A3022 RMK AO2 SLP232 T02280211
KBTR 220653Z AUTO 15008KT 6SM BR OVC026 23/21 A3022 RMK AO2 SLP233 T02280211
KBTR 220553Z AUTO 16011KT 7SM OVC029 23/21 A3022 RMK AO2 SLP233 T02330211 10256 20233 403000217 51007
KBTR 220544Z 16009KT 7SM FEW019 OVC028 23/21 A3022 RMK AO2 T02330211
KBTR 220533Z 15010KT 7SM FEW024 BKN030 OVC038 23/21 A3022 RMK AO2 T02330211
KBTR 220453Z 16012KT 8SM FEW020 BKN027 OVC035 24/21 A3022 RMK AO2 SLP233 T02390206
KBTR 220427Z 16012KT 8SM OVC027 24/21 A3022 RMK AO2 T02390206
KBTR 220353Z 16014KT 8SM SCT029 OVC034 24/21 A3021 RMK AO2 SLP229 T02390206
KBTR 212353Z 17017G23KT 10SM BKN036 26/19 A3015 RMK AO2 PK WND 18030/2301 SLP210 T02560189 10300 20256 53014
KBTR 212253Z 19020G27KT 10SM BKN036 BKN060 27/18 A3014 RMK AO2 PK WND 18031/2201 SLP204 T02670178
KBTR 212153Z 18017G31KT 10SM BKN036 BKN060 28/18 A3011 RMK AO2 PK WND 17031/2146 SLP197 T02830183
KBTR 212053Z 17021G30KT 10SM BKN036 BKN060 28/18 A3011 RMK AO2 PK WND 17031/2025 SLP196 T02780183 55019
KBTR 211953Z 18020G31KT 10SM BKN038 BKN100 29/19 A3011 RMK AO2 PK WND 17031/1951 SLP195 T02940189
KBTR 211853Z 17016KT 10SM SCT038 BKN050 29/19 A3013 RMK AO2 PK WND 17026/1841 SLP203 T02940189
KBTR 211800Z 16015G26KT 10SM BKN036 BKN043 BKN050 28/18 A3017 RMK AO2 T02780183
KBTR 211753Z 16017G26KT 10SM BKN024 BKN036 BKN045 28/19 A3017 RMK AO2 PK WND 15028/1732 SLP215 T02830189 10289 20228 58012
KBTR 211653Z 14012G21KT 10SM BKN024 BKN038 28/20 A3020 RMK AO2 PK WND 15026/1607 SLP225 T02780200
KBTR 211553Z 14015G24KT 10SM BKN024 BKN031 26/20 A3020 RMK AO2 SLP227 T02610200
KBTR 211548Z 13013G23KT 10SM BKN024 BKN031 26/20 A3020 RMK AO2
KBTR 211453Z 13010KT 9SM BKN013 25/21 A3021 RMK AO2 SLP228 T02500206 51012
KBTR 211353Z 13010KT 8SM BKN013 24/21 A3020 RMK AO2 SLP226 T02390206
KBTR 211253Z 14009G17KT 7SM BKN011 BKN024 OVC029 23/21 A3019 RMK AO2 SLP222 T02280206
KBTR 210753Z AUTO 13007KT 6SM BR SCT012 OVC023 22/21 A3017 RMK AO2 SLP216 T02220206
KBTR 210733Z AUTO 12004KT 6SM BR BKN012 OVC019 22/21 A3017 RMK AO2 T02220211
KBTR 210653Z AUTO 12005KT 7SM OVC020 22/21 A3017 RMK AO2 SLP217 T02220206
KBTR 210553Z AUTO 12006KT 8SM SCT020 OVC025 22/20 A3017 RMK AO2 SLP215 T02220200 10261 20222 403060194 51007